WS09 weather

Rox Airport
Coloma, Wisconsin, United States

Public forecast

Using degrees Fahrenheit for public forecast. Weather courtesy of forecast.io.

Closest aviation weather report (METAR) to Rox Airport

Closest report is Wautoma Municipal Airport, 9.7 nm (17.9 km) E. Retrieved 2019/10/16 16:18 UTC (0 seconds ago):

KY50 161618Z AUTO 32016G22KT 10SM BKN031 09/02 A2996 RMK AO2

Closest aviation forecast (TAF) to Rox Airport

Forecast is more than 12 hours old.

Closest forecast is Volk Field, 31.8 nm (58.9 km) W. Retrieved 2019/10/15 17:06 UTC (23 hours ago):

TAF KVOK 151700Z 1517/1623 27009KT 9999 FEW050 OVC120 QNH2967INS BECMG 1518/1519 28012G18KT 9999 SCT015 BKN020 OVC060 QNH2968INS TEMPO 1519/1523 29015G25KT BKN015 BECMG 1600/1601 31010G15KT 9999 OVC015 620505 QNH2982INS BECMG 1614/1615 33020G30KT 9999 BKN020 510003 QNH2997INS BECMG 1620/1621 34015G20KT 9999 BKN030 510023 QNH2998INS TX15/1518Z TN03/1605Z LAST NO AMDS AFT 1521 NEXT 1609